Archiv-/Tagesdaten

--Timestamp---	Temp	Chill	HIndex	Humid	Dewpt	Wind	HiWind	WindDir	Rain	Barom	Solar	ET	UV
--------------	----	-----	------	-----	-----	----	------	-------	----	-----	-----	--	--
20080428 00:05	10.1	10.1	10.1	69	4.6	0	3	157	0.00	1015.073	0	0.000	0
20080428 00:10	10.1	10.1	10.1	69	4.7	0	3	157	0.00	1015.005	0	0.000	0
20080428 00:15	10.2	10.2	10.2	69	4.7	0	5	157	0.00	1015.039	0	0.000	0
20080428 00:20	10.3	10.3	10.3	69	4.8	0	3	157	0.00	1014.904	0	0.000	0
20080428 00:25	10.3	10.3	10.3	69	4.9	0	2	157	0.00	1014.734	0	0.000	0
20080428 00:30	10.4	10.4	10.4	69	4.9	0	2	157	0.00	1014.700	0	0.000	0
20080428 00:35	10.4	10.4	10.4	69	4.9	0	3	157	0.00	1014.666	0	0.000	0
20080428 00:40	10.4	10.4	10.4	69	5.0	0	5	180	0.00	1014.633	0	0.000	0
20080428 00:45	10.4	10.4	10.4	69	4.9	0	3	180	0.00	1014.599	0	0.000	0
20080428 00:50	10.3	10.3	10.3	69	4.9	0	3	180	0.00	1014.565	0	0.000	0
20080428 00:55	10.2	10.2	10.2	69	4.8	2	5	180	0.00	1014.531	0	0.000	0
20080428 01:00	10.1	10.1	10.1	70	4.9	0	5	180	0.00	1014.666	0	0.020	0
20080428 01:05	10.1	10.1	10.1	70	4.8	0	5	180	0.00	1014.599	0	0.000	0
20080428 01:10	9.9	9.9	9.9	70	4.7	2	5	180	0.00	1014.531	0	0.000	0
20080428 01:15	9.7	9.7	9.7	70	4.5	2	8	180	0.00	1014.396	0	0.000	0
20080428 01:20	9.5	9.5	9.5	71	4.5	0	3	180	0.00	1014.429	0	0.000	0
20080428 01:25	9.4	9.4	9.4	71	4.4	0	3	180	0.00	1014.294	0	0.000	0
20080428 01:30	9.3	9.3	9.3	72	4.5	0	3	180	0.00	1014.294	0	0.000	0
20080428 01:35	9.3	9.3	9.3	72	4.5	0	2	180	0.00	1014.328	0	0.000	0
20080428 01:40	9.2	9.2	9.2	72	4.4	0	0	180	0.00	1014.294	0	0.000	0
20080428 01:45	9.2	9.2	9.2	73	4.6	0	0	180	0.00	1014.226	0	0.000	0
20080428 01:50	9.1	9.1	9.1	73	4.5	0	2	180	0.00	1014.260	0	0.000	0
20080428 01:55	9.1	9.1	9.1	73	4.5	0	2	180	0.00	1014.192	0	0.000	0
20080428 02:00	9.1	9.1	9.1	73	4.5	0	2	180	0.00	1014.159	0	0.020	0
20080428 02:05	9.1	9.1	9.1	73	4.5	0	5	180	0.00	1013.888	0	0.000	0
20080428 02:10	9.0	9.0	9.0	73	4.4	0	5	180	0.00	1013.820	0	0.000	0
20080428 02:15	9.1	9.1	9.1	72	4.3	3	10	180	0.00	1013.820	0	0.000	0
20080428 02:20	9.2	9.2	9.2	71	4.2	3	8	202	0.00	1013.617	0	0.000	0
20080428 02:25	9.2	9.2	9.2	71	4.2	3	6	202	0.00	1013.583	0	0.000	0
20080428 02:30	9.1	9.1	9.1	72	4.3	2	6	202	0.00	1013.583	0	0.000	0
20080428 02:35	8.9	8.9	8.9	73	4.4	2	6	202	0.00	1013.651	0	0.000	0
20080428 02:40	8.8	8.8	8.8	73	4.2	2	8	202	0.00	1013.617	0	0.000	0
20080428 02:45	8.7	8.7	8.7	74	4.3	2	5	202	0.00	1013.549	0	0.000	0
20080428 02:50	8.6	8.6	8.6	74	4.2	2	10	202	0.00	1013.447	0	0.000	0
20080428 02:55	8.6	8.6	8.6	74	4.2	3	6	202	0.00	1013.380	0	0.000	0
20080428 03:00	8.6	8.6	8.6	74	4.2	2	6	202	0.00	1013.278	0	0.020	0
20080428 03:05	8.6	8.6	8.6	74	4.2	2	5	202	0.00	1013.278	0	0.000	0
20080428 03:10	8.6	8.6	8.6	74	4.2	2	5	202	0.00	1013.210	0	0.000	0
20080428 03:15	8.5	8.5	8.5	75	4.3	2	5	202	0.00	1013.177	0	0.000	0
20080428 03:20	8.5	8.5	8.5	75	4.3	0	5	202	0.00	1013.109	0	0.000	0
20080428 03:25	8.4	8.4	8.4	75	4.3	0	2	202	0.00	1013.109	0	0.000	0
20080428 03:30	8.4	8.4	8.4	76	4.4	0	2	202	0.00	1013.075	0	0.000	0
20080428 03:35	8.3	8.3	8.3	76	4.4	0	2	202	0.00	1013.041	0	0.000	0
20080428 03:40	8.3	8.3	8.3	76	4.3	0	2	202	0.00	1013.041	0	0.000	0
20080428 03:45	8.2	8.2	8.2	76	4.2	0	2	202	0.00	1012.939	0	0.000	0
20080428 03:50	8.2	8.2	8.2	77	4.4	0	3	202	0.00	1012.906	0	0.000	0
20080428 03:55	8.2	8.2	8.2	77	4.4	0	3	202	0.00	1012.939	0	0.000	0
20080428 04:00	8.2	8.2	8.2	77	4.4	0	5	180	0.00	1012.872	0	0.020	0
20080428 04:05	8.2	8.2	8.2	77	4.4	2	3	180	0.00	1012.838	0	0.000	0
20080428 04:10	8.3	8.3	8.3	76	4.3	2	5	180	0.00	1012.702	0	0.000	0
20080428 04:15	8.3	8.3	8.3	76	4.4	2	5	180	0.00	1012.770	0	0.000	0
20080428 04:20	8.3	8.3	8.3	76	4.4	2	3	180	0.00	1012.601	0	0.000	0
20080428 04:25	8.3	8.3	8.3	76	4.3	0	3	180	0.00	1012.533	0	0.000	0
20080428 04:30	8.3	8.3	8.3	76	4.3	2	5	180	0.00	1012.465	0	0.000	0
20080428 04:35	8.3	8.3	8.3	76	4.3	0	5	180	0.00	1012.465	0	0.000	0
20080428 04:40	8.2	8.2	8.2	76	4.2	0	5	180	0.00	1012.465	0	0.000	0
20080428 04:45	8.3	8.3	8.3	76	4.3	0	3	180	0.00	1012.364	0	0.000	0
20080428 04:50	8.2	8.2	8.2	76	4.2	0	6	180	0.00	1012.330	0	0.000	0
20080428 04:55	8.2	8.2	8.2	76	4.2	0	5	180	0.00	1012.330	0	0.000	0
20080428 05:00	8.2	8.2	8.2	76	4.2	2	5	180	0.00	1012.296	0	0.020	0
20080428 05:05	8.2	8.2	8.2	76	4.2	3	8	180	0.00	1012.296	0	0.000	0
20080428 05:10	8.2	8.2	8.2	76	4.2	3	8	202	0.00	1012.262	0	0.000	0
20080428 05:15	8.2	8.2	8.2	76	4.2	2	10	202	0.00	1012.228	0	0.000	0
20080428 05:20	8.2	8.2	8.2	75	4.1	2	6	202	0.00	1012.194	0	0.000	0
20080428 05:25	8.2	8.2	8.2	75	4.0	2	6	180	0.00	1012.161	0	0.000	0
20080428 05:30	8.2	8.2	8.2	75	4.0	3	8	180	0.00	1012.127	0	0.000	0
20080428 05:35	8.2	8.2	8.2	75	4.0	2	8	180	0.00	1012.093	0	0.000	0
20080428 05:40	8.1	8.1	8.1	75	3.9	0	5	180	0.00	1012.093	0	0.000	0
20080428 05:45	8.1	8.1	8.1	75	3.9	0	2	180	0.00	1012.025	0	0.000	0
20080428 05:50	7.9	7.9	7.9	76	4.0	0	3	180	0.00	1012.025	0	0.000	0
20080428 05:55	7.9	7.9	7.9	76	3.9	2	6	180	0.00	1011.991	0	0.000	0
20080428 06:00	7.8	7.8	7.8	76	3.9	2	8	180	0.00	1011.957	5	0.000	0
20080428 06:05	7.8	7.8	7.8	76	3.9	2	8	180	0.00	1012.059	11	0.000	0
20080428 06:10	7.9	7.9	7.9	76	3.9	2	5	180	0.00	1011.991	14	0.000	0
20080428 06:15	7.9	7.9	7.9	76	3.9	2	5	180	0.00	1011.991	17	0.000	0
20080428 06:20	7.8	7.8	7.8	76	3.9	2	5	180	0.00	1011.957	21	0.000	0
20080428 06:25	7.8	7.8	7.8	76	3.9	0	6	180	0.00	1011.957	24	0.000	0
20080428 06:30	7.8	7.8	7.8	76	3.9	0	3	180	0.00	1011.957	26	0.000	0
20080428 06:35	7.8	7.8	7.8	76	3.9	0	2	180	0.00	1011.957	30	0.000	0
20080428 06:40	7.9	7.9	7.9	76	3.9	0	2	180	0.00	1011.991	34	0.000	0
20080428 06:45	7.9	7.9	7.9	76	3.9	0	3	180	0.00	1011.957	37	0.000	0
20080428 06:50	8.0	8.0	8.0	76	4.0	0	3	180	0.00	1011.924	40	0.000	0
20080428 06:55	8.1	8.1	8.1	75	3.9	0	3	180	0.00	1011.991	46	0.000	0
20080428 07:00	8.2	8.2	8.2	75	4.0	2	6	180	0.00	1012.025	54	0.020	0
20080428 07:05	8.2	8.2	8.2	75	4.1	2	5	202	0.00	1012.127	59	0.000	0
20080428 07:10	8.4	8.4	8.4	75	4.2	0	3	202	0.00	1012.161	64	0.000	0
20080428 07:15	8.6	8.6	8.6	74	4.2	2	6	202	0.00	1012.194	70	0.000	0
20080428 07:20	8.8	8.8	8.8	74	4.4	2	5	202	0.00	1012.161	114	0.000	0
20080428 07:25	9.0	9.0	9.0	73	4.4	2	6	202	0.00	1012.161	132	0.000	0
20080428 07:30	9.3	9.3	9.3	73	4.7	0	5	202	0.00	1012.025	141	0.000	0
20080428 07:35	9.6	9.6	9.6	73	5.0	3	10	202	0.00	1012.059	149	0.000	0
20080428 07:40	9.8	9.8	9.8	71	4.8	3	10	202	0.00	1012.025	160	0.000	0
20080428 07:45	10.0	10.0	10.0	71	5.0	2	6	225	0.00	1011.991	172	0.000	0
20080428 07:50	10.3	10.3	10.3	70	5.0	3	10	225	0.00	1011.924	171	0.000	0
20080428 07:55	10.5	10.5	10.5	69	5.1	3	10	202	0.00	1011.856	171	0.000	0
20080428 08:00	10.7	10.7	10.7	69	5.2	3	10	202	0.00	1011.788	163	0.060	1
20080428 08:05	10.8	10.8	10.8	69	5.4	3	10	202	0.00	1011.991	183	0.000	1
20080428 08:10	11.0	11.0	11.0	69	5.5	3	11	180	0.00	1011.822	159	0.000	1
20080428 08:15	11.2	11.2	11.2	69	5.7	3	6	180	0.00	1011.856	232	0.000	1
20080428 08:20	11.6	11.6	11.6	69	6.1	3	6	202	0.00	1011.822	266	0.000	1
20080428 08:25	11.9	11.9	11.9	68	6.2	2	8	202	0.00	1011.754	316	0.000	1
20080428 08:30	12.3	12.3	12.3	67	6.3	2	10	202	0.00	1011.619	342	0.000	1
20080428 08:35	12.7	12.7	12.7	66	6.5	2	8	202	0.00	1011.619	361	0.000	1
20080428 08:40	13.1	13.1	13.1	65	6.6	3	10	202	0.00	1011.653	367	0.000	1
20080428 08:45	13.4	13.4	13.4	64	6.8	3	8	202	0.00	1011.483	362	0.000	1
20080428 08:50	13.8	13.8	13.8	64	7.1	3	8	202	0.00	1011.449	337	0.000	1
20080428 08:55	14.2	14.2	14.2	62	7.0	2	6	202	0.00	1011.382	375	0.000	2
20080428 09:00	14.7	14.7	14.7	61	7.2	3	10	202	0.00	1011.314	399	0.120	2
20080428 09:05	15.0	15.0	15.0	60	7.3	2	14	225	0.00	1011.517	397	0.000	2
20080428 09:10	15.0	15.0	15.0	57	6.5	5	14	202	0.00	1011.449	420	0.000	2
20080428 09:15	15.1	15.1	15.1	56	6.4	5	11	202	0.00	1011.416	456	0.000	2
20080428 09:20	15.2	15.2	15.2	57	6.8	2	11	202	0.00	1011.382	430	0.000	2
20080428 09:25	15.2	15.2	15.2	56	6.5	3	8	225	0.00	1011.416	303	0.000	2
20080428 09:30	15.2	15.2	15.2	57	6.8	2	6	225	0.00	1011.314	98	0.000	2
20080428 09:35	15.3	15.3	15.3	56	6.5	3	8	225	0.00	1011.179	92	0.000	2
20080428 09:40	15.4	15.4	15.4	56	6.7	2	6	225	0.00	1011.145	89	0.000	2
20080428 09:45	15.6	15.6	15.6	56	6.9	2	6	247	0.00	1011.179	94	0.000	2
20080428 09:50	15.9	15.9	15.9	55	6.9	2	5	270	0.00	1011.077	111	0.000	2
20080428 09:55	16.2	16.2	16.2	55	7.2	3	10	247	0.00	1011.077	203	0.000	2
20080428 10:00	16.5	16.5	16.5	56	7.7	2	6	270	0.00	1010.908	303	0.120	2
20080428 10:05	16.7	16.7	16.7	55	7.6	3	10	247	0.00	1010.840	316	0.000	2
20080428 10:10	16.8	16.8	16.8	55	7.7	3	6	247	0.00	1010.806	282	0.000	2
20080428 10:15	16.9	16.9	16.9	55	7.8	3	8	270	0.00	1010.738	259	0.000	2
20080428 10:20	17.0	17.0	17.0	56	8.2	3	8	315	0.00	1010.772	285	0.000	3
20080428 10:25	17.2	17.2	17.2	54	7.8	5	10	315	0.00	1010.671	499	0.000	3
20080428 10:30	17.3	17.3	17.3	55	8.2	3	8	247	0.00	1010.603	661	0.000	4
20080428 10:35	17.7	17.7	17.7	54	8.2	3	10	292	0.00	1010.501	643	0.000	4
20080428 10:40	17.9	17.9	17.9	51	7.6	5	13	292	0.00	1010.366	646	0.000	4
20080428 10:45	18.1	18.1	18.1	53	8.3	0	5	247	0.00	1010.298	629	0.000	4
20080428 10:50	18.2	18.2	18.2	52	8.2	2	8	315	0.00	1010.196	662	0.000	4
20080428 10:55	18.3	18.3	18.3	52	8.3	2	10	292	0.00	1010.163	667	0.000	4
20080428 11:00	18.4	18.4	18.4	52	8.4	3	8	315	0.00	1010.129	673	0.240	4
20080428 11:05	18.5	18.5	18.5	51	8.2	3	8	270	0.00	1010.196	679	0.000	4
20080428 11:10	18.6	18.6	18.6	53	8.8	5	11	315	0.00	1010.061	686	0.000	5
20080428 11:15	18.7	18.7	18.7	54	9.2	6	16	315	0.00	1009.959	689	0.000	5
20080428 11:20	18.8	18.8	18.8	52	8.8	5	10	292	0.00	1009.926	692	0.000	5
20080428 11:25	19.1	19.1	19.1	51	8.7	2	8	270	0.00	1009.858	707	0.000	5
20080428 11:30	19.2	19.2	19.2	52	9.1	5	11	270	0.00	1009.756	720	0.000	5
20080428 11:35	19.2	19.2	19.2	50	8.5	3	8	292	0.00	1009.722	729	0.000	5
20080428 11:40	19.3	19.3	19.3	48	8.0	3	6	270	0.00	1009.688	737	0.000	6
20080428 11:45	19.4	19.4	19.4	49	8.4	3	6	270	0.00	1009.519	741	0.000	6
20080428 11:50	19.6	19.6	19.6	49	8.5	2	8	202	0.00	1009.451	749	0.000	6
20080428 11:55	19.6	19.6	19.6	51	9.1	2	5	202	0.00	1009.316	755	0.000	6
20080428 12:00	19.6	19.6	19.6	50	8.9	0	5	247	0.00	1009.248	760	0.340	6
20080428 12:05	19.6	19.6	19.6	53	9.8	2	5	315	0.00	1009.147	755	0.000	6
20080428 12:10	19.7	19.7	19.7	49	8.6	3	11	292	0.00	1009.113	776	0.000	5
20080428 12:15	19.7	19.7	19.7	51	9.3	2	6	292	0.00	1008.943	796	0.000	6
20080428 12:20	19.8	19.8	19.8	49	8.8	2	5	270	0.00	1008.910	773	0.000	6
20080428 12:25	19.9	19.9	19.9	51	9.5	2	5	315	0.00	1008.808	738	0.000	6
20080428 12:30	20.1	20.1	20.1	49	9.0	2	5	337	0.00	1008.740	801	0.000	6
20080428 12:35	20.2	20.2	20.2	47	8.5	2	6	315	0.00	1008.706	824	0.000	7
20080428 12:40	20.3	20.3	20.3	46	8.3	2	6	270	0.00	1008.673	772	0.000	6
20080428 12:45	20.2	20.2	20.2	49	9.2	2	6	0	0.00	1008.537	783	0.000	6
20080428 12:50	20.3	20.3	20.3	49	9.2	3	6	22	0.00	1008.368	775	0.000	7
20080428 12:55	20.3	20.3	20.3	47	8.6	2	5	292	0.00	1008.334	578	0.000	5
20080428 13:00	20.3	20.3	20.3	47	8.6	3	8	292	0.00	1008.266	284	0.340	4
20080428 13:05	20.0	20.0	20.0	48	8.6	0	3	337	0.00	1008.300	303	0.000	4
20080428 13:10	20.0	20.0	20.0	47	8.3	0	3	337	0.00	1008.165	666	0.000	6
20080428 13:15	20.3	20.3	20.3	49	9.3	2	5	292	0.00	1008.029	796	0.000	7
20080428 13:20	20.6	20.6	20.6	48	9.2	0	3	45	0.00	1007.928	786	0.000	7
20080428 13:25	20.8	20.8	20.8	46	8.8	2	3	90	0.00	1007.758	783	0.000	6
20080428 13:30	20.9	20.9	20.9	44	8.2	2	6	157	0.00	1007.724	698	0.000	6
20080428 13:35	20.9	20.9	20.9	44	8.2	2	6	247	0.00	1007.623	847	0.000	7
20080428 13:40	21.1	21.1	21.1	46	9.0	2	6	247	0.00	1007.589	825	0.000	7
20080428 13:45	21.4	21.4	21.4	45	9.0	0	3	247	0.00	1007.589	521	0.000	5
20080428 13:50	21.4	21.4	21.4	43	8.3	0	3	225	0.00	1007.555	332	0.000	4
20080428 13:55	21.1	21.1	21.1	43	8.0	2	6	225	0.00	1007.487	229	0.000	4
20080428 14:00	20.8	20.8	20.8	44	8.1	2	8	225	0.00	1007.521	401	0.280	5
20080428 14:05	20.9	20.9	20.9	43	7.8	3	10	202	0.00	1007.487	290	0.000	5
20080428 14:10	20.7	20.7	20.7	43	7.6	3	8	225	0.00	1007.521	246	0.000	4
20080428 14:15	20.5	20.5	20.5	44	7.8	2	5	225	0.00	1007.487	240	0.000	3
20080428 14:20	20.4	20.4	20.4	46	8.4	0	3	225	0.00	1007.386	272	0.000	3
20080428 14:25	20.4	20.4	20.4	45	8.1	0	3	225	0.00	1007.318	320	0.000	4
20080428 14:30	20.6	20.6	20.6	45	8.2	0	2	225	0.00	1007.352	321	0.000	3
20080428 14:35	20.7	20.7	20.7	45	8.4	0	3	225	0.00	1007.318	276	0.000	3
20080428 14:40	20.8	20.8	20.8	45	8.4	0	2	225	0.00	1007.115	307	0.000	3
20080428 14:45	20.9	20.9	20.9	47	9.1	5	11	225	0.00	1006.945	307	0.000	3
20080428 14:50	20.9	20.9	20.9	47	9.1	5	11	270	0.00	1006.912	338	0.000	3
20080428 14:55	20.8	20.8	20.8	48	9.4	3	8	315	0.00	1006.878	370	0.000	4
20080428 15:00	20.9	20.9	20.9	48	9.5	2	5	315	0.00	1006.810	347	0.180	3
20080428 15:05	21.0	21.0	21.0	44	8.3	2	6	0	0.00	1006.878	486	0.000	4
20080428 15:10	21.0	21.0	21.0	46	8.9	2	6	315	0.00	1006.878	359	0.000	4
20080428 15:15	20.9	20.9	20.9	44	8.2	2	3	315	0.00	1006.776	280	0.000	3
20080428 15:20	20.8	20.8	20.8	46	8.8	3	8	292	0.00	1006.742	239	0.000	3
20080428 15:25	20.8	20.8	20.8	45	8.4	5	8	292	0.00	1006.607	222	0.000	2
20080428 15:30	20.8	20.8	20.8	47	9.0	3	6	315	0.00	1006.471	251	0.000	3
20080428 15:35	20.9	20.9	20.9	46	8.8	2	5	315	0.00	1006.438	657	0.000	4
20080428 15:40	21.1	21.1	21.1	47	9.3	3	8	315	0.00	1006.336	659	0.000	4
20080428 15:45	21.4	21.4	21.4	47	9.7	2	5	292	0.00	1006.099	666	0.000	4
20080428 15:50	21.7	21.7	21.7	44	8.9	2	5	22	0.00	1006.031	648	0.000	4
20080428 15:55	21.6	21.6	21.6	44	8.8	5	11	22	0.00	1005.930	632	0.000	4
20080428 16:00	21.5	21.5	21.5	44	8.7	5	10	45	0.00	1005.760	596	0.240	4
20080428 16:05	21.4	21.4	21.4	44	8.6	5	10	67	0.00	1005.693	581	0.000	3
20080428 16:10	21.4	21.4	21.4	44	8.6	5	10	45	0.00	1005.591	549	0.000	3
20080428 16:15	21.4	21.4	21.4	44	8.7	5	10	112	0.00	1005.523	567	0.000	3
20080428 16:20	21.6	21.6	21.6	45	9.1	2	8	0	0.00	1005.489	536	0.000	3
20080428 16:25	21.6	21.6	21.6	45	9.1	5	8	67	0.00	1005.489	534	0.000	3
20080428 16:30	21.5	21.5	21.5	44	8.7	2	6	67	0.00	1005.489	532	0.000	3
20080428 16:35	21.6	21.6	21.6	45	9.1	5	10	67	0.00	1005.354	522	0.000	3
20080428 16:40	21.5	21.5	21.5	46	9.4	5	10	67	0.00	1005.354	501	0.000	2
20080428 16:45	21.6	21.6	21.6	45	9.2	5	10	67	0.00	1005.185	447	0.000	2
20080428 16:50	21.5	21.5	21.5	44	8.7	2	5	67	0.00	1005.185	468	0.000	2
20080428 16:55	21.4	21.4	21.4	44	8.6	5	11	22	0.00	1005.151	459	0.000	2
20080428 17:00	21.3	21.3	21.3	43	8.2	3	8	22	0.00	1005.185	453	0.260	2
20080428 17:05	21.3	21.3	21.3	45	8.9	5	11	22	0.00	1005.083	429	0.000	2
20080428 17:10	21.3	21.3	21.3	44	8.5	3	6	45	0.00	1005.015	439	0.000	2
20080428 17:15	21.4	21.4	21.4	46	9.3	3	10	22	0.00	1004.846	416	0.000	2
20080428 17:20	21.6	21.6	21.6	44	8.8	3	8	90	0.00	1004.812	381	0.000	2
20080428 17:25	21.6	21.6	21.6	45	9.1	2	6	67	0.00	1004.846	347	0.000	1
20080428 17:30	21.5	21.5	21.5	44	8.7	5	14	45	0.00	1004.744	308	0.000	1
20080428 17:35	21.4	21.4	21.4	44	8.6	5	11	45	0.00	1004.677	255	0.000	1
20080428 17:40	21.3	21.3	21.3	45	8.9	5	8	67	0.00	1004.711	231	0.000	1
20080428 17:45	21.2	21.2	21.2	46	9.1	3	10	67	0.00	1004.677	240	0.000	1
20080428 17:50	21.1	21.1	21.1	46	9.0	3	6	90	0.00	1004.609	230	0.000	1
20080428 17:55	21.0	21.0	21.0	46	8.9	5	10	45	0.00	1004.541	201	0.000	1
20080428 18:00	20.9	20.9	20.9	47	9.2	5	6	67	0.00	1004.473	197	0.180	1
20080428 18:05	20.9	20.9	20.9	46	8.8	5	8	45	0.00	1004.473	141	0.000	1
20080428 18:10	20.8	20.8	20.8	47	9.0	3	6	67	0.00	1004.406	121	0.000	1
20080428 18:15	20.6	20.6	20.6	48	9.2	3	6	67	0.00	1004.304	81	0.000	1
20080428 18:20	20.4	20.4	20.4	49	9.4	2	5	67	0.00	1004.203	68	0.000	0
20080428 18:25	20.3	20.3	20.3	50	9.5	2	6	67	0.00	1004.203	56	0.000	0
20080428 18:30	20.1	20.1	20.1	50	9.4	2	5	67	0.00	1004.236	54	0.000	0
20080428 18:35	20.0	20.0	20.0	52	9.8	3	6	67	0.00	1004.203	51	0.000	0
20080428 18:40	19.8	19.8	19.8	53	10.0	3	6	67	0.00	1004.203	47	0.000	0
20080428 18:45	19.7	19.7	19.7	55	10.4	3	6	67	0.00	1004.169	41	0.000	0
20080428 18:50	19.6	19.6	19.6	56	10.5	5	6	67	0.00	1004.135	40	0.000	0
20080428 18:55	19.4	19.4	19.4	56	10.4	3	6	67	0.00	1004.067	45	0.000	0
20080428 19:00	19.3	19.3	19.3	57	10.6	2	5	67	0.00	1004.067	53	0.060	0
20080428 19:05	19.3	19.3	19.3	55	10.0	3	6	67	0.00	1003.728	59	0.000	0
20080428 19:10	19.2	19.2	19.2	55	10.0	3	6	45	0.00	1003.661	50	0.000	0
20080428 19:15	19.2	19.2	19.2	56	10.2	2	6	45	0.00	1003.728	39	0.000	0
20080428 19:20	19.1	19.1	19.1	56	10.1	2	6	45	0.00	1003.762	28	0.000	0
20080428 19:25	19.0	19.0	19.0	57	10.3	2	3	45	0.00	1003.762	19	0.000	0
20080428 19:30	18.8	18.8	18.8	57	10.1	2	5	22	0.00	1003.762	11	0.000	0
20080428 19:35	18.7	18.7	18.7	58	10.3	2	3	45	0.00	1003.762	7	0.000	0
20080428 19:40	18.6	18.6	18.6	59	10.4	0	3	45	0.00	1003.830	1	0.000	0
20080428 19:45	18.5	18.5	18.5	60	10.6	0	5	0	0.00	1003.999	0	0.000	0
20080428 19:50	18.2	18.2	18.2	60	10.3	13	45	292	0.00	1004.711	0	0.000	0
20080428 19:55	16.8	16.8	16.8	67	10.6	26	47	292	0.00	1005.117	0	0.000	0
20080428 20:00	15.4	15.4	15.4	73	10.6	19	31	270	0.00	1005.523	0	0.040	0
20080428 20:05	14.3	14.3	14.3	75	9.9	24	39	292	0.20	1005.557	0	0.000	0
20080428 20:10	13.6	13.6	13.6	79	10.0	16	29	270	0.40	1005.963	0	0.000	0
20080428 20:15	13.1	13.1	13.1	82	10.1	13	27	270	0.40	1006.099	0	0.000	0
20080428 20:20	12.7	12.7	12.7	83	9.9	16	31	292	0.40	1006.201	0	0.000	0
20080428 20:25	12.4	12.4	12.4	85	10.0	11	23	270	1.00	1006.336	0	0.000	0
20080428 20:30	12.2	12.2	12.2	86	9.9	13	24	270	0.40	1006.370	0	0.000	0
20080428 20:35	12.1	12.1	12.1	87	10.0	10	19	270	0.40	1006.539	0	0.000	0
20080428 20:40	12.0	12.0	12.0	88	10.1	6	16	247	0.00	1006.675	0	0.000	0
20080428 20:45	12.0	12.0	12.0	89	10.2	5	11	225	0.20	1006.742	0	0.000	0
20080428 20:50	12.0	12.0	12.0	89	10.2	3	8	247	0.00	1006.878	0	0.000	0
20080428 20:55	12.0	12.0	12.0	90	10.4	5	13	225	0.20	1006.945	0	0.000	0
20080428 21:00	12.1	12.1	12.1	90	10.5	5	11	225	0.20	1007.013	0	0.020	0
20080428 21:05	12.1	12.1	12.1	90	10.5	5	11	225	0.20	1006.912	0	0.000	0
20080428 21:10	12.1	12.1	12.1	90	10.5	6	16	247	0.20	1006.979	0	0.000	0
20080428 21:15	12.0	12.0	12.0	89	10.2	8	16	247	0.00	1007.047	0	0.000	0
20080428 21:20	11.9	11.9	11.9	89	10.2	8	23	247	0.20	1007.013	0	0.000	0
20080428 21:25	11.9	11.9	11.9	90	10.4	6	19	247	0.00	1007.115	0	0.000	0
20080428 21:30	11.9	11.9	11.9	89	10.1	11	21	247	0.20	1007.216	0	0.000	0
20080428 21:35	11.8	11.8	11.8	89	10.0	10	18	247	0.20	1007.250	0	0.000	0
20080428 21:40	11.7	11.7	11.7	90	10.1	11	26	247	0.40	1007.284	0	0.000	0
20080428 21:45	11.6	11.6	11.6	90	10.0	10	21	247	0.40	1007.318	0	0.000	0
20080428 21:50	11.5	11.5	11.5	91	10.1	10	23	247	0.20	1007.386	0	0.000	0
20080428 21:55	11.4	11.4	11.4	91	10.0	11	23	247	0.20	1007.420	0	0.000	0
20080428 22:00	11.3	11.3	11.3	91	9.9	10	18	247	0.20	1007.420	0	0.020	0
20080428 22:05	11.3	11.3	11.3	91	9.9	10	18	270	0.20	1007.352	0	0.000	0
20080428 22:10	11.2	11.2	11.2	91	9.8	8	18	247	0.20	1007.284	0	0.000	0
20080428 22:15	11.2	11.2	11.2	91	9.8	6	16	270	0.40	1007.250	0	0.000	0
20080428 22:20	11.1	11.1	11.1	91	9.7	6	18	270	0.20	1007.284	0	0.000	0
20080428 22:25	11.1	11.1	11.1	92	9.8	6	11	270	0.20	1007.216	0	0.000	0
20080428 22:30	11.0	11.0	11.0	91	9.6	6	13	270	0.20	1007.115	0	0.000	0
20080428 22:35	10.9	10.9	10.9	91	9.5	8	19	270	0.20	1007.081	0	0.000	0
20080428 22:40	10.9	10.9	10.9	91	9.5	8	16	270	0.20	1007.013	0	0.000	0
20080428 22:45	10.8	10.8	10.8	91	9.4	10	18	270	0.20	1006.979	0	0.000	0
20080428 22:50	10.8	10.8	10.8	91	9.4	8	16	292	0.20	1006.878	0	0.000	0
20080428 22:55	10.7	10.7	10.7	92	9.5	8	18	270	0.20	1006.844	0	0.000	0
20080428 23:00	10.7	10.7	10.7	91	9.3	8	19	292	0.00	1006.878	0	0.000	0
20080428 23:05	10.6	10.6	10.6	92	9.4	6	18	270	0.20	1006.641	0	0.000	0
20080428 23:10	10.6	10.6	10.6	92	9.4	6	11	292	0.00	1006.708	0	0.000	0
20080428 23:15	10.6	10.6	10.6	92	9.4	5	10	270	0.00	1006.675	0	0.000	0
20080428 23:20	10.6	10.6	10.6	92	9.4	3	8	292	0.20	1006.708	0	0.000	0
20080428 23:25	10.6	10.6	10.6	92	9.4	2	6	292	0.00	1006.708	0	0.000	0
20080428 23:30	10.6	10.6	10.6	92	9.4	2	5	270	0.00	1006.708	0	0.000	0
20080428 23:35	10.6	10.6	10.6	92	9.4	2	5	270	0.00	1006.675	0	0.000	0
20080428 23:40	10.6	10.6	10.6	92	9.4	2	5	270	0.00	1006.641	0	0.000	0
20080428 23:45	10.6	10.6	10.6	92	9.4	0	3	270	0.00	1006.573	0	0.000	0
20080428 23:50	10.6	10.6	10.6	93	9.5	0	3	270	0.00	1006.573	0	0.000	0
20080428 23:55	10.6	10.6	10.6	93	9.5	0	5	270	0.00	1006.573	0	0.000	0
20080428 24:00	10.6	10.6	10.6	92	9.3	2	5	270	0.00	1006.539	0	0.000	0



Please note the license to use and transfer of this data:
http://creativecommons.org/licenses/by-nc-sa/3.0/deed.en

Bitte beachten sie die Lizenz zur Verwertung und Weitergabe der Daten:
http://creativecommons.org/licenses/by-nc-sa/3.0/deed.de

zurück zur Übersicht der Archivdaten (Monats und Tagesdaten)

Cookies helfen bei der Bereitstellung von Inhalten. Durch die Nutzung dieser Seiten erklärst du dich damit einverstanden, dass Cookies auf deinem Rechner gespeichert werden. Weitere Information